Time;durP1;ratioP1;P1;durP2;ratioP2;P2;SDS_P1;SDS_P2;PMS_P1;PMS_P2;Temp;Humidity;BMP_temperature;BMP_pressure;BME280_temperature;BME280_humidity;BME280_pressure;Samples;Min_cycle;Max_cycle;Signal;HPM_P1;HPM_P2
2024/02/19 00:01:49;;;;;;;10.13;1.35;;;;;;;;;;5050541;28;20048;-75
2024/02/19 00:04:16;;;;;;;13.10;2.13;;;;;;;;;;5051811;28;20049;-74
2024/02/19 00:06:44;;;;;;;14.20;2.45;;;;;;;;;;5050339;28;20052;-74
2024/02/19 00:09:13;;;;;;;;;;;;;;;;;;4980928;28;20124;-72
2024/02/19 00:11:44;;;;;;;13.70;2.47;;;;;;;;;;5044520;28;20367;-73
2024/02/19 00:14:12;;;;;;;16.08;1.50;;;;;;;;;;5035234;28;20036;-75
2024/02/19 00:16:39;;;;;;;7.05;1.65;;;;;;;;;;5037216;28;20080;-75
2024/02/19 00:19:07;;;;;;;18.70;2.20;;;;;;;;;;5016108;28;20073;-75
2024/02/19 00:21:38;;;;;;;13.52;2.10;;;;;;;;;;5050661;28;20055;-74
2024/02/19 00:24:06;;;;;;;17.10;2.38;;;;;;;;;;5036498;28;20060;-73
2024/02/19 00:26:33;;;;;;;16.27;2.40;;;;;;;;;;5039056;28;20063;-76
2024/02/19 00:29:02;;;;;;;20.13;2.72;;;;;;;;;;4972762;28;20057;-76
2024/02/19 00:31:29;;;;;;;15.65;2.50;;;;;;;;;;4972071;28;20054;-73
2024/02/19 00:33:59;;;;;;;21.95;3.35;;;;;;;;;;4984315;28;20052;-73
2024/02/19 00:36:28;;;;;;;13.27;1.85;;;;;;;;;;5037046;28;20076;-76
2024/02/19 00:38:55;;;;;;;11.57;2.10;;;;;;;;;;5023310;28;20085;-76
2024/02/19 00:41:22;;;;;;;15.07;1.98;;;;;;;;;;5035005;28;20065;-73
2024/02/19 00:43:52;;;;;;;18.58;1.80;;;;;;;;;;5038700;28;20076;-75
2024/02/19 00:46:21;;;;;;;20.33;2.00;;;;;;;;;;5038109;28;20037;-74
2024/02/19 00:48:59;;;;;;;11.93;1.35;;;;;;;;;;5029635;28;20193;-72
2024/02/19 00:51:26;;;;;;;19.20;1.65;;;;;;;;;;5047161;28;20076;-72
2024/02/19 00:53:53;;;;;;;16.52;1.63;;;;;;;;;;5032085;28;20567;-73
2024/02/19 00:56:20;;;;;;;10.18;1.42;;;;;;;;;;5038190;28;20049;-73
2024/02/19 00:58:47;;;;;;;16.35;1.80;;;;;;;;;;5010473;28;20056;-70
2024/02/19 01:01:14;;;;;;;11.23;1.80;;;;;;;;;;5026874;28;20403;-71
2024/02/19 01:03:49;;;;;;;17.30;1.92;;;;;;;;;;5037427;28;20052;-72
2024/02/19 01:06:17;;;;;;;18.50;2.25;;;;;;;;;;5037416;28;20574;-74
2024/02/19 01:08:44;;;;;;;18.02;2.17;;;;;;;;;;5041086;28;20052;-72
2024/02/19 01:11:11;;;;;;;18.23;2.00;;;;;;;;;;5030056;28;20087;-72
2024/02/19 01:13:42;;;;;;;12.50;1.58;;;;;;;;;;5038903;28;20091;-73
2024/02/19 01:16:11;;;;;;;10.98;1.35;;;;;;;;;;5035136;28;20045;-73
2024/02/19 01:18:37;;;;;;;15.00;1.67;;;;;;;;;;4950572;28;20101;-73
2024/02/19 01:21:07;;;;;;;12.52;1.65;;;;;;;;;;4993162;28;20041;-72
2024/02/19 01:23:36;;;;;;;15.38;1.73;;;;;;;;;;5037155;28;20175;-71
2024/02/19 01:26:03;;;;;;;14.48;2.47;;;;;;;;;;5030719;28;20045;-71
2024/02/19 01:28:30;;;;;;;16.95;1.70;;;;;;;;;;5020376;28;20061;-72
2024/02/19 01:30:57;;;;;;;11.18;2.15;;;;;;;;;;5038587;28;20048;-72
2024/02/19 01:33:25;;;;;;;21.33;2.50;;;;;;;;;;5035941;28;20041;-73
2024/02/19 01:35:54;;;;;;;19.35;2.10;;;;;;;;;;5029593;28;20045;-73
2024/02/19 01:38:27;;;;;;;19.65;1.67;;;;;;;;;;5020371;28;20134;-73
2024/02/19 01:41:02;;;;;;;12.25;1.33;;;;;;;;;;5021304;28;20300;-73
2024/02/19 01:43:29;;;;;;;20.58;2.40;;;;;;;;;;5036542;28;20045;-75
2024/02/19 01:45:58;;;;;;;20.67;1.70;;;;;;;;;;5028535;28;20049;-75
2024/02/19 01:48:26;;;;;;;19.35;2.05;;;;;;;;;;5019698;28;20047;-72
2024/02/19 01:50:56;;;;;;;11.70;1.50;;;;;;;;;;5013137;28;20115;-71
2024/02/19 01:53:26;;;;;;;11.13;1.27;;;;;;;;;;5038424;28;20053;-75
2024/02/19 01:55:55;;;;;;;10.55;1.67;;;;;;;;;;5032486;28;20063;-76
2024/02/19 01:58:23;;;;;;;10.60;1.38;;;;;;;;;;5010804;28;20107;-71
2024/02/19 02:00:50;;;;;;;17.00;1.70;;;;;;;;;;5032931;28;20537;-73
2024/02/19 02:03:20;;;;;;;17.77;2.15;;;;;;;;;;5033295;28;20084;-70
2024/02/19 02:05:49;;;;;;;20.00;2.00;;;;;;;;;;5031446;28;20098;-72
2024/02/19 02:08:16;;;;;;;15.85;1.50;;;;;;;;;;5060315;28;20057;-71
2024/02/19 02:10:45;;;;;;;12.20;1.58;;;;;;;;;;4986251;28;20059;-70
2024/02/19 02:13:12;;;;;;;16.63;1.92;;;;;;;;;;5065987;28;20045;-70
2024/02/19 02:15:42;;;;;;;16.83;1.83;;;;;;;;;;5033973;28;20045;-72
2024/02/19 02:18:11;;;;;;;13.20;2.00;;;;;;;;;;5023392;28;20051;-73
2024/02/19 02:20:39;;;;;;;21.08;1.85;;;;;;;;;;4977469;28;20052;-75
2024/02/19 02:23:06;;;;;;;6.75;1.17;;;;;;;;;;5037285;28;20570;-76
2024/02/19 02:25:34;;;;;;;13.50;2.35;;;;;;;;;;5033959;28;20061;-73
2024/02/19 02:28:02;;;;;;;18.00;1.90;;;;;;;;;;5032408;28;20246;-76
2024/02/19 02:30:29;;;;;;;;;;;;;;;;;;4981374;28;20539;-74
2024/02/19 02:32:58;;;;;;;10.18;1.80;;;;;;;;;;5037795;28;19924;-76
2024/02/19 02:35:28;;;;;;;14.43;2.05;;;;;;;;;;5036606;28;20056;-73
2024/02/19 02:37:55;;;;;;;14.30;1.38;;;;;;;;;;5034029;28;20076;-75
2024/02/19 02:40:22;;;;;;;13.85;1.50;;;;;;;;;;4920422;28;20068;-75
2024/02/19 02:42:49;;;;;;;8.63;1.17;;;;;;;;;;4957145;28;20078;-72
2024/02/19 02:45:18;;;;;;;12.73;1.33;;;;;;;;;;4957891;28;20042;-73
2024/02/19 02:47:47;;;;;;;;;;;;;;;;;;4957339;28;20054;-73
2024/02/19 02:50:14;;;;;;;9.95;1.55;;;;;;;;;;4929848;28;19934;-71
2024/02/19 02:52:41;;;;;;;11.50;1.40;;;;;;;;;;4960518;28;20050;-73
2024/02/19 02:55:08;;;;;;;21.25;2.15;;;;;;;;;;4959874;28;20081;-73
2024/02/19 02:57:44;;;;;;;11.15;1.55;;;;;;;;;;5044114;28;20483;-73
2024/02/19 03:00:12;;;;;;;14.38;1.35;;;;;;;;;;5003305;28;20065;-72
2024/02/19 03:02:40;;;;;;;7.33;1.40;;;;;;;;;;4907207;28;20525;-75
2024/02/19 03:05:09;;;;;;;13.45;2.10;;;;;;;;;;4933922;28;20521;-71
2024/02/19 03:07:35;;;;;;;5.72;1.38;;;;;;;;;;4938761;28;20075;-75
2024/02/19 03:10:02;;;;;;;19.38;2.25;;;;;;;;;;4936904;28;20055;-73
2024/02/19 03:12:30;;;;;;;13.85;1.60;;;;;;;;;;4930077;28;20347;-72
2024/02/19 03:14:57;;;;;;;14.73;1.67;;;;;;;;;;4993275;28;20050;-74
2024/02/19 03:17:24;;;;;;;18.05;1.83;;;;;;;;;;4955231;28;20062;-74
2024/02/19 03:19:52;;;;;;;19.60;1.80;;;;;;;;;;4986976;28;20061;-72
2024/02/19 03:22:19;;;;;;;13.90;1.85;;;;;;;;;;4944842;28;20055;-74
2024/02/19 03:24:46;;;;;;;15.60;2.13;;;;;;;;;;4960521;28;20080;-76
2024/02/19 03:27:14;;;;;;;9.95;1.67;;;;;;;;;;4957768;28;20165;-72
2024/02/19 03:29:41;;;;;;;15.82;1.92;;;;;;;;;;4958224;28;20050;-71
2024/02/19 03:32:11;;;;;;;8.75;1.73;;;;;;;;;;4946244;28;20058;-73
2024/02/19 03:34:38;;;;;;;17.08;2.00;;;;;;;;;;4964209;28;20092;-73
2024/02/19 03:37:08;;;;;;;11.77;1.77;;;;;;;;;;5012608;28;20047;-72
2024/02/19 03:39:35;;;;;;;17.95;1.77;;;;;;;;;;4966961;28;20058;-74
2024/02/19 03:42:02;;;;;;;10.38;1.52;;;;;;;;;;4918523;28;20051;-71
2024/02/19 03:44:32;;;;;;;12.65;1.67;;;;;;;;;;4983874;28;20048;-72
2024/02/19 03:46:59;;;;;;;10.68;1.65;;;;;;;;;;4958425;28;20078;-72
2024/02/19 03:49:26;;;;;;;15.32;1.77;;;;;;;;;;4960414;28;20100;-73
2024/02/19 03:51:56;;;;;;;14.75;1.58;;;;;;;;;;4970737;28;20058;-71
2024/02/19 03:54:25;;;;;;;13.48;1.40;;;;;;;;;;4941276;28;20057;-74
2024/02/19 03:56:52;;;;;;;16.67;1.55;;;;;;;;;;4968069;28;20100;-72
2024/02/19 03:59:19;;;;;;;14.60;2.00;;;;;;;;;;4956813;28;20054;-74
2024/02/19 04:01:46;;;;;;;19.33;1.90;;;;;;;;;;4918926;28;20087;-73
2024/02/19 04:04:16;;;;;;;13.18;1.80;;;;;;;;;;4969981;28;20046;-71
2024/02/19 04:06:43;;;;;;;14.65;2.30;;;;;;;;;;4964966;28;20074;-73
2024/02/19 04:09:12;;;;;;;13.35;1.63;;;;;;;;;;4961826;28;20115;-73
2024/02/19 04:11:44;;;;;;;10.88;1.70;;;;;;;;;;4946961;28;20047;-72
2024/02/19 04:14:13;;;;;;;10.82;1.27;;;;;;;;;;4949421;28;20046;-73
2024/02/19 04:16:42;;;;;;;;;;;;;;;;;;4960723;28;20523;-72
2024/02/19 04:19:12;;;;;;;13.90;1.65;;;;;;;;;;4960955;28;19932;-72
2024/02/19 04:21:45;;;;;;;13.77;1.92;;;;;;;;;;4929819;28;20070;-72
2024/02/19 04:24:12;;;;;;;14.90;1.73;;;;;;;;;;4969810;28;20166;-74
2024/02/19 04:26:40;;;;;;;14.35;1.42;;;;;;;;;;4962968;28;20058;-74
2024/02/19 04:29:09;;;;;;;16.98;2.05;;;;;;;;;;4962497;28;20082;-73
2024/02/19 04:31:37;;;;;;;9.10;1.77;;;;;;;;;;4952285;28;20116;-73
2024/02/19 04:34:05;;;;;;;8.15;1.30;;;;;;;;;;4954026;28;20494;-70
2024/02/19 04:36:32;;;;;;;13.00;1.90;;;;;;;;;;4961244;28;20054;-74
2024/02/19 04:38:59;;;;;;;9.50;1.73;;;;;;;;;;4971529;28;20086;-73
2024/02/19 04:41:26;;;;;;;11.38;1.30;;;;;;;;;;4930087;28;20164;-75
2024/02/19 04:43:55;;;;;;;13.52;1.60;;;;;;;;;;4964099;28;20058;-71
2024/02/19 04:46:27;;;;;;;;;;;;;;;;;;4959031;28;20050;-73
2024/02/19 04:48:54;;;;;;;16.52;1.65;;;;;;;;;;4964697;28;19926;-74
2024/02/19 04:51:28;;;;;;;10.30;1.55;;;;;;;;;;4910560;28;20058;-76
2024/02/19 04:56:21;;;;;;;16.67;2.15;;;;;;;;;;4885480;29;20047;-74
2024/02/19 04:58:47;;;;;;;19.00;2.00;;;;;;;;;;4903734;29;20151;-74
2024/02/19 05:01:18;;;;;;;12.52;1.92;;;;;;;;;;4917992;28;20059;-72
2024/02/19 05:03:48;;;;;;;11.30;1.50;;;;;;;;;;4884338;28;20140;-73
2024/02/19 05:06:17;;;;;;;12.00;1.98;;;;;;;;;;4899941;28;20325;-75
2024/02/19 05:08:47;;;;;;;19.30;2.20;;;;;;;;;;4913371;28;20082;-74
2024/02/19 05:11:15;;;;;;;13.70;1.92;;;;;;;;;;4959326;28;20054;-73
2024/02/19 05:13:42;;;;;;;12.68;1.60;;;;;;;;;;4908607;28;20067;-74
2024/02/19 05:16:10;;;;;;;11.63;1.52;;;;;;;;;;4960926;28;20054;-74
2024/02/19 05:18:37;;;;;;;7.55;1.77;;;;;;;;;;4962489;28;20046;-75
2024/02/19 05:21:15;;;;;;;10.90;1.85;;;;;;;;;;4962476;28;20050;-73
2024/02/19 05:23:42;;;;;;;16.92;1.92;;;;;;;;;;4927811;28;20058;-73
2024/02/19 05:26:42;;;;;;;12.20;1.58;;;;;;;;;;4975227;28;20073;-72
2024/02/19 05:29:11;;;;;;;15.77;1.77;;;;;;;;;;4961007;28;20058;-73
2024/02/19 05:31:39;;;;;;;11.88;1.70;;;;;;;;;;4935265;28;21212;-72
2024/02/19 05:34:09;;;;;;;8.85;1.50;;;;;;;;;;4934659;28;20059;-72
2024/02/19 05:36:41;;;;;;;8.98;2.03;;;;;;;;;;4957874;28;20050;-74
2024/02/19 05:39:10;;;;;;;12.88;2.10;;;;;;;;;;4999764;28;20153;-75
2024/02/19 05:41:39;;;;;;;6.97;1.35;;;;;;;;;;4936185;28;20354;-75
2024/02/19 05:44:06;;;;;;;7.18;1.73;;;;;;;;;;4968997;28;20523;-76
2024/02/19 05:46:33;;;;;;;14.77;4.00;;;;;;;;;;5025981;28;20066;-74
2024/02/19 05:49:00;;;;;;;13.85;4.07;;;;;;;;;;4969368;28;20050;-73
2024/02/19 05:51:52;;;;;;;12.18;2.80;;;;;;;;;;4948296;28;20821;-75
2024/02/19 05:54:24;;;;;;;12.65;2.40;;;;;;;;;;4943988;28;20122;-74
2024/02/19 05:56:51;;;;;;;12.25;2.40;;;;;;;;;;4998985;28;20050;-76
2024/02/19 05:59:30;;;;;;;9.48;2.00;;;;;;;;;;4974821;28;20076;-73
2024/02/19 06:01:57;;;;;;;12.10;2.72;;;;;;;;;;4900396;28;20127;-75
2024/02/19 06:04:24;;;;;;;13.93;2.08;;;;;;;;;;4856763;28;20048;-73
2024/02/19 06:06:56;;;;;;;13.20;2.83;;;;;;;;;;4904358;29;20051;-78
2024/02/19 06:09:23;;;;;;;13.15;2.47;;;;;;;;;;4909686;28;20070;-73
2024/02/19 06:11:56;;;;;;;25.30;4.28;;;;;;;;;;4905003;28;20062;-75
2024/02/19 06:14:25;;;;;;;28.15;8.13;;;;;;;;;;4862576;28;20074;-74
2024/02/19 06:16:55;;;;;;;20.13;3.65;;;;;;;;;;4897700;29;20059;-74
2024/02/19 06:19:37;;;;;;;15.80;2.33;;;;;;;;;;4931749;28;20166;-72
2024/02/19 06:22:10;;;;;;;16.98;2.97;;;;;;;;;;4881012;28;20048;-75
2024/02/19 06:29:30;;;;;;;15.98;2.80;;;;;;;;;;4798888;29;20087;-76
2024/02/19 06:31:57;;;;;;;21.10;5.95;;;;;;;;;;4823329;29;20061;-74
2024/02/19 06:36:51;;;;;;;11.88;2.58;;;;;;;;;;4836111;28;20135;-76
2024/02/19 06:39:21;;;;;;;15.10;2.47;;;;;;;;;;4821361;29;20062;-71
2024/02/19 06:41:48;;;;;;;11.75;2.22;;;;;;;;;;4862941;28;20056;-74
2024/02/19 06:44:16;;;;;;;13.10;2.35;;;;;;;;;;4883832;28;20071;-73
2024/02/19 06:46:45;;;;;;;9.95;2.53;;;;;;;;;;4926098;28;20056;-74
2024/02/19 06:49:36;;;;;;;12.55;2.28;;;;;;;;;;4919478;28;20107;-74
2024/02/19 06:52:09;;;;;;;7.82;1.98;;;;;;;;;;4897014;28;20066;-72
2024/02/19 06:54:40;;;;;;;15.60;2.42;;;;;;;;;;4837483;28;20060;-76
2024/02/19 06:57:20;;;;;;;11.20;2.50;;;;;;;;;;4911643;28;20047;-73
2024/02/19 06:59:57;;;;;;;14.15;2.22;;;;;;;;;;4954195;28;20046;-74
2024/02/19 07:02:24;;;;;;;7.28;2.00;;;;;;;;;;4958819;28;20153;-73
2024/02/19 07:04:53;;;;;;;12.02;2.47;;;;;;;;;;4845820;28;20146;-71
2024/02/19 07:07:23;;;;;;;17.02;2.25;;;;;;;;;;4967894;28;20051;-74
2024/02/19 07:09:52;;;;;;;11.73;2.35;;;;;;;;;;4957328;28;20051;-74
2024/02/19 07:12:20;;;;;;;20.17;2.53;;;;;;;;;;4946949;28;20070;-74
2024/02/19 07:22:19;;;;;;;13.70;2.78;;;;;;;;;;4867036;29;20088;-70
2024/02/19 07:25:04;;;;;;;17.85;3.20;;;;;;;;;;4783502;28;20063;-75
2024/02/19 07:27:35;;;;;;;9.50;2.28;;;;;;;;;;4788730;29;20162;-72
2024/02/19 07:30:10;;;;;;;14.98;2.25;;;;;;;;;;4822929;29;20303;-74
2024/02/19 07:32:37;;;;;;;11.38;1.90;;;;;;;;;;4869168;29;20056;-71
2024/02/19 07:35:21;;;;;;;7.82;2.50;;;;;;;;;;4833018;29;20064;-74
2024/02/19 07:37:48;;;;;;;15.95;4.03;;;;;;;;;;4879942;28;20138;-71
2024/02/19 07:40:21;;;;;;;17.20;3.83;;;;;;;;;;4901409;28;20130;-70
2024/02/19 07:42:50;;;;;;;14.05;3.13;;;;;;;;;;4922489;28;20199;-73
2024/02/19 07:45:23;;;;;;;14.45;2.70;;;;;;;;;;4870319;28;20043;-73
2024/02/19 07:47:52;;;;;;;8.98;2.08;;;;;;;;;;4925195;28;20061;-73
2024/02/19 07:50:32;;;;;;;10.48;1.75;;;;;;;;;;4937241;28;20055;-71
2024/02/19 07:53:01;;;;;;;11.37;2.20;;;;;;;;;;4935358;28;20173;-72
2024/02/19 07:55:28;;;;;;;;;;;;;;;;;;4861839;28;20147;-76
2024/02/19 07:57:56;;;;;;;6.60;1.90;;;;;;;;;;4876181;28;20919;-71
2024/02/19 08:00:24;;;;;;;9.73;2.22;;;;;;;;;;4939878;28;20059;-73
2024/02/19 08:02:54;;;;;;;7.65;2.20;;;;;;;;;;4935453;28;20086;-72
2024/02/19 08:05:21;;;;;;;8.65;1.95;;;;;;;;;;4895279;28;20058;-75
2024/02/19 08:07:48;;;;;;;9.25;2.00;;;;;;;;;;4952389;28;20055;-76
2024/02/19 08:10:15;;;;;;;11.32;1.92;;;;;;;;;;4940089;28;20055;-72
2024/02/19 08:12:45;;;;;;;11.63;2.15;;;;;;;;;;4938801;28;20142;-73
2024/02/19 08:15:20;;;;;;;10.18;2.10;;;;;;;;;;4862654;28;20056;-75
2024/02/19 08:17:53;;;;;;;10.18;2.30;;;;;;;;;;4882828;28;20052;-74
2024/02/19 08:20:23;;;;;;;9.57;2.55;;;;;;;;;;4915581;28;20048;-75
2024/02/19 08:22:55;;;;;;;9.23;2.60;;;;;;;;;;4872418;28;20080;-74
2024/02/19 08:32:41;;;;;;;10.63;3.08;;;;;;;;;;5122741;27;20366;-70
2024/02/19 08:35:09;;;;;;;16.10;2.83;;;;;;;;;;5069858;28;20052;-68
2024/02/19 08:37:36;;;;;;;20.85;4.10;;;;;;;;;;5056188;28;20060;-69
2024/02/19 08:40:04;;;;;;;14.23;2.70;;;;;;;;;;5073040;28;20047;-69
2024/02/19 08:42:31;;;;;;;8.17;2.43;;;;;;;;;;5056863;28;20143;-69
2024/02/19 08:44:58;;;;;;;11.25;2.67;;;;;;;;;;5058463;28;20039;-69
2024/02/19 08:47:25;;;;;;;16.55;2.72;;;;;;;;;;5058261;28;20106;-68
2024/02/19 08:49:54;;;;;;;9.60;2.30;;;;;;;;;;5066803;28;20032;-69
2024/02/19 08:52:21;;;;;;;15.25;3.13;;;;;;;;;;5070373;28;20040;-67
2024/02/19 08:54:49;;;;;;;10.38;2.25;;;;;;;;;;5058588;28;20049;-66
2024/02/19 08:57:16;;;;;;;6.68;1.98;;;;;;;;;;5066173;28;20075;-68
2024/02/19 08:59:45;;;;;;;9.43;2.33;;;;;;;;;;5062649;28;20060;-68
2024/02/19 09:02:12;;;;;;;11.50;2.85;;;;;;;;;;5053171;28;20075;-68
2024/02/19 09:04:42;;;;;;;11.48;2.85;;;;;;;;;;5058408;28;20048;-68
2024/02/19 09:07:12;;;;;;;6.25;2.03;;;;;;;;;;5069972;28;20148;-66
2024/02/19 09:09:39;;;;;;;16.75;2.47;;;;;;;;;;5049057;28;20107;-67
2024/02/19 09:12:06;;;;;;;14.52;2.65;;;;;;;;;;5071478;28;20041;-66
2024/02/19 09:14:33;;;;;;;10.30;2.65;;;;;;;;;;5048808;28;20055;-68
2024/02/19 09:17:01;;;;;;;7.95;2.20;;;;;;;;;;5084502;28;20048;-68
2024/02/19 09:19:28;;;;;;;10.38;2.17;;;;;;;;;;5052761;28;20107;-65
2024/02/19 09:21:56;;;;;;;7.32;2.17;;;;;;;;;;5072481;28;20044;-66
2024/02/19 09:24:25;;;;;;;11.02;2.22;;;;;;;;;;5039201;28;20064;-68
2024/02/19 09:26:52;;;;;;;11.63;2.45;;;;;;;;;;5063391;28;20060;-68
2024/02/19 09:29:19;;;;;;;8.43;1.88;;;;;;;;;;5055052;28;20068;-67
2024/02/19 09:31:55;;;;;;;19.38;2.45;;;;;;;;;;5085769;28;20063;-65
2024/02/19 09:34:22;;;;;;;10.27;2.17;;;;;;;;;;5061525;28;20055;-69
2024/02/19 09:36:50;;;;;;;6.47;1.90;;;;;;;;;;5044191;28;20133;-65
2024/02/19 09:39:19;;;;;;;8.30;2.58;;;;;;;;;;5051776;28;20056;-66
2024/02/19 09:41:48;;;;;;;10.05;2.50;;;;;;;;;;5052630;28;20063;-66
2024/02/19 09:44:15;;;;;;;11.63;1.83;;;;;;;;;;5043266;28;20059;-67
2024/02/19 09:46:43;;;;;;;9.50;2.00;;;;;;;;;;5055650;28;20056;-65
2024/02/19 09:49:12;;;;;;;10.02;2.30;;;;;;;;;;5062672;28;20056;-68
2024/02/19 09:51:45;;;;;;;14.27;2.53;;;;;;;;;;5042009;28;20141;-66
2024/02/19 09:54:13;;;;;;;11.38;2.65;;;;;;;;;;5056399;28;20056;-67
2024/02/19 09:56:43;;;;;;;11.80;2.70;;;;;;;;;;5060737;28;20136;-67
2024/02/19 09:59:15;;;;;;;13.07;2.88;;;;;;;;;;5055564;28;20048;-66
2024/02/19 10:01:44;;;;;;;14.63;2.60;;;;;;;;;;5055628;28;20059;-69
2024/02/19 10:04:14;;;;;;;7.15;2.53;;;;;;;;;;5052764;28;20050;-68
2024/02/19 10:06:45;;;;;;;13.57;2.55;;;;;;;;;;5057216;28;20048;-67
2024/02/19 10:09:14;;;;;;;10.52;3.20;;;;;;;;;;5055223;28;21560;-68
2024/02/19 10:11:40;;;;;;;12.32;2.83;;;;;;;;;;5046186;28;20047;-66
2024/02/19 10:14:09;;;;;;;9.98;3.10;;;;;;;;;;5056840;28;20051;-65
2024/02/19 10:16:37;;;;;;;;;;;;;;;;;;5080373;28;20051;-67
2024/02/19 10:19:05;;;;;;;14.30;2.63;;;;;;;;;;5076396;28;19935;-68
2024/02/19 10:21:32;;;;;;;9.07;2.50;;;;;;;;;;5067432;28;20167;-67
2024/02/19 10:23:58;;;;;;;12.93;2.97;;;;;;;;;;5050093;28;20067;-66
2024/02/19 10:26:25;;;;;;;15.65;2.95;;;;;;;;;;5050963;28;20064;-68
2024/02/19 10:28:55;;;;;;;15.60;2.97;;;;;;;;;;5072455;28;20044;-69
2024/02/19 10:31:22;;;;;;;11.27;3.08;;;;;;;;;;5052314;28;20043;-68
2024/02/19 10:33:50;;;;;;;15.43;3.25;;;;;;;;;;5058345;28;20124;-67
2024/02/19 10:36:22;;;;;;;10.50;2.47;;;;;;;;;;5071506;28;20122;-66
2024/02/19 10:38:49;;;;;;;9.68;2.78;;;;;;;;;;5062035;28;20093;-68
2024/02/19 10:41:17;;;;;;;9.95;3.05;;;;;;;;;;5055260;28;20090;-69
2024/02/19 10:43:44;;;;;;;14.05;3.33;;;;;;;;;;5045287;28;20176;-64
2024/02/19 10:46:19;;;;;;;16.48;4.18;;;;;;;;;;5055006;28;20052;-66
2024/02/19 10:48:46;;;;;;;11.52;3.25;;;;;;;;;;5061970;28;20048;-68
2024/02/19 10:51:17;;;;;;;13.63;3.33;;;;;;;;;;5059720;28;20048;-68
2024/02/19 10:53:44;;;;;;;16.65;3.65;;;;;;;;;;5052381;28;20059;-66
2024/02/19 10:56:16;;;;;;;10.32;3.25;;;;;;;;;;5053786;28;20049;-68
2024/02/19 10:58:51;;;;;;;10.45;3.15;;;;;;;;;;5060413;28;20075;-64
2024/02/19 11:01:18;;;;;;;11.32;3.17;;;;;;;;;;5056869;28;20058;-67
2024/02/19 11:03:48;;;;;;;18.60;4.25;;;;;;;;;;5048374;28;20052;-65
2024/02/19 11:06:17;;;;;;;11.95;3.38;;;;;;;;;;5054636;28;20044;-67
2024/02/19 11:08:51;;;;;;;9.38;3.20;;;;;;;;;;5080532;28;20153;-65
2024/02/19 11:11:24;;;;;;;18.77;3.40;;;;;;;;;;5053391;28;20056;-66
2024/02/19 11:13:51;;;;;;;16.95;4.38;;;;;;;;;;5050658;28;20052;-68
2024/02/19 11:19:10;;;;;;;15.07;3.75;;;;;;;;;;5064536;28;20059;-68
2024/02/19 11:21:40;;;;;;;11.52;2.80;;;;;;;;;;5054930;28;20047;-68
2024/02/19 11:24:09;;;;;;;;;;;;;;;;;;5066810;28;20056;-64
2024/02/19 11:26:40;;;;;;;9.93;2.67;;;;;;;;;;5040930;28;19963;-66
2024/02/19 11:29:08;;;;;;;11.93;3.05;;;;;;;;;;5053649;28;20048;-65
2024/02/19 11:31:35;;;;;;;19.35;3.40;;;;;;;;;;5034725;28;20061;-65
2024/02/19 11:34:02;;;;;;;11.77;2.70;;;;;;;;;;5045027;28;20048;-67
2024/02/19 11:36:30;;;;;;;7.70;2.67;;;;;;;;;;5077925;28;20055;-66
2024/02/19 11:39:00;;;;;;;10.43;2.42;;;;;;;;;;5080486;28;20083;-68
2024/02/19 11:41:27;;;;;;;9.90;2.15;;;;;;;;;;5074584;28;20106;-65
2024/02/19 11:43:57;;;;;;;13.27;2.60;;;;;;;;;;5073222;28;20071;-70
2024/02/19 11:46:24;;;;;;;10.18;2.50;;;;;;;;;;5096855;28;20119;-69
2024/02/19 11:48:53;;;;;;;10.50;2.53;;;;;;;;;;5087605;27;20067;-66
2024/02/19 11:51:22;;;;;;;;;;;;;;;;;;5077779;28;20167;-68
2024/02/19 11:53:50;;;;;;;17.38;3.00;;;;;;;;;;5066324;28;19924;-68
2024/02/19 11:56:19;;;;;;;8.25;2.17;;;;;;;;;;5062884;28;20039;-69
2024/02/19 11:58:50;;;;;;;14.90;3.15;;;;;;;;;;5078738;28;20078;-68
2024/02/19 12:01:20;;;;;;;10.18;2.40;;;;;;;;;;5070597;28;20040;-68
2024/02/19 12:03:47;;;;;;;12.63;2.58;;;;;;;;;;5072498;28;20051;-66
2024/02/19 12:06:16;;;;;;;11.98;2.45;;;;;;;;;;5062330;28;20043;-68
2024/02/19 12:08:45;;;;;;;12.10;2.50;;;;;;;;;;5081926;28;20054;-69
2024/02/19 12:11:24;;;;;;;8.18;2.42;;;;;;;;;;5073116;28;20097;-65
2024/02/19 12:13:52;;;;;;;;;;;;;;;;;;5075090;28;20055;-66
2024/02/19 12:16:20;;;;;;;19.63;2.92;;;;;;;;;;5056424;28;20082;-69
2024/02/19 12:18:47;;;;;;;9.25;2.70;;;;;;;;;;5091157;28;20139;-67
2024/02/19 12:21:32;;;;;;;10.57;2.47;;;;;;;;;;5078623;28;20039;-66
2024/02/19 12:24:15;;;;;;;12.65;3.38;;;;;;;;;;5045846;28;20044;-67
2024/02/19 12:26:48;;;;;;;10.20;2.50;;;;;;;;;;5081848;28;20051;-69
2024/02/19 12:29:21;;;;;;;12.10;2.28;;;;;;;;;;5074622;28;20063;-70
2024/02/19 12:31:48;;;;;;;14.15;2.78;;;;;;;;;;5079899;28;20075;-70
2024/02/19 12:34:15;;;;;;;11.88;2.70;;;;;;;;;;5063011;28;20077;-69
2024/02/19 12:36:42;;;;;;;13.60;3.08;;;;;;;;;;5080404;28;20082;-68
2024/02/19 12:39:35;;;;;;;7.88;2.22;;;;;;;;;;5078536;28;20143;-68
2024/02/19 12:42:08;;;;;;;9.15;2.47;;;;;;;;;;5069671;28;20054;-68
2024/02/19 12:44:44;;;;;;;7.38;2.72;;;;;;;;;;5051837;28;20085;-69
2024/02/19 12:47:17;;;;;;;13.95;2.58;;;;;;;;;;5091144;28;20142;-67
2024/02/19 12:49:55;;;;;;;17.75;3.35;;;;;;;;;;5078669;28;20163;-68
2024/02/19 12:52:30;;;;;;;;;;;;;;;;;;5065375;28;20163;-69
2024/02/19 12:54:58;;;;;;;13.23;3.53;;;;;;;;;;5079105;28;19923;-71
2024/02/19 12:57:26;;;;;;;25.73;4.30;;;;;;;;;;5073648;28;20152;-69
2024/02/19 13:00:01;;;;;;;16.35;5.00;;;;;;;;;;5081589;28;20048;-67
2024/02/19 13:02:28;;;;;;;15.02;4.55;;;;;;;;;;5086277;28;20061;-65
2024/02/19 13:04:55;;;;;;;13.65;4.55;;;;;;;;;;5043895;28;20086;-68
2024/02/19 13:07:25;;;;;;;14.30;5.05;;;;;;;;;;5074274;28;20053;-70
2024/02/19 13:09:59;;;;;;;14.77;4.07;;;;;;;;;;5063654;28;20147;-70
2024/02/19 13:12:26;;;;;;;12.75;5.30;;;;;;;;;;5090261;28;20093;-68
2024/02/19 13:14:56;;;;;;;12.00;4.20;;;;;;;;;;5067290;28;20055;-67
2024/02/19 13:17:26;;;;;;;17.38;6.13;;;;;;;;;;5093133;28;20047;-67
2024/02/19 13:19:54;;;;;;;22.95;5.28;;;;;;;;;;5089035;27;20052;-68
2024/02/19 13:22:25;;;;;;;13.07;5.43;;;;;;;;;;5068168;28;20052;-67
2024/02/19 13:25:21;;;;;;;19.02;6.18;;;;;;;;;;5065276;28;20050;-67
2024/02/19 13:28:03;;;;;;;19.85;5.60;;;;;;;;;;5081747;28;20051;-66
2024/02/19 13:30:30;;;;;;;16.55;5.15;;;;;;;;;;5080572;28;20051;-66
2024/02/19 13:33:06;;;;;;;13.45;5.78;;;;;;;;;;5097631;28;20117;-69
2024/02/19 13:35:54;;;;;;;16.45;6.40;;;;;;;;;;5038487;28;20064;-69
2024/02/19 13:38:25;;;;;;;23.23;6.80;;;;;;;;;;5080031;28;20062;-69
2024/02/19 13:40:52;;;;;;;12.88;5.22;;;;;;;;;;5082368;28;20039;-66
2024/02/19 13:43:22;;;;;;;11.88;4.72;;;;;;;;;;5078012;28;20047;-67
2024/02/19 13:46:01;;;;;;;14.05;5.30;;;;;;;;;;5061960;28;20047;-66
2024/02/19 13:48:30;;;;;;;9.65;3.35;;;;;;;;;;5076210;28;20116;-69
2024/02/19 13:50:58;;;;;;;13.68;3.30;;;;;;;;;;5076740;28;20054;-66
2024/02/19 13:53:26;;;;;;;12.25;3.60;;;;;;;;;;5074972;28;20137;-67
2024/02/19 13:55:56;;;;;;;9.32;3.40;;;;;;;;;;5067120;28;21076;-70
2024/02/19 13:58:23;;;;;;;8.95;3.00;;;;;;;;;;5074499;28;20043;-67
2024/02/19 14:00:51;;;;;;;8.40;2.85;;;;;;;;;;5100631;28;20234;-69
2024/02/19 14:03:20;;;;;;;16.30;4.60;;;;;;;;;;5078198;28;20051;-69
2024/02/19 14:05:49;;;;;;;8.82;3.10;;;;;;;;;;5075892;28;20139;-68
2024/02/19 14:08:17;;;;;;;10.27;3.53;;;;;;;;;;5080307;28;20071;-67
2024/02/19 14:10:45;;;;;;;11.10;3.65;;;;;;;;;;5081856;28;20077;-66
2024/02/19 14:13:12;;;;;;;15.90;4.07;;;;;;;;;;5071167;28;20058;-66
2024/02/19 14:15:40;;;;;;;12.10;3.10;;;;;;;;;;5061721;28;20043;-67
2024/02/19 14:18:07;;;;;;;14.90;4.20;;;;;;;;;;5080985;28;20108;-68
2024/02/19 14:20:34;;;;;;;9.68;3.58;;;;;;;;;;5096696;28;20071;-64
2024/02/19 14:23:06;;;;;;;16.00;3.67;;;;;;;;;;5080875;28;20143;-65
2024/02/19 14:25:35;;;;;;;10.32;3.47;;;;;;;;;;5031931;27;20047;-65
2024/02/19 14:28:03;;;;;;;;;;;;;;;;;;5067787;28;20056;-69
2024/02/19 14:30:41;;;;;;;13.25;3.00;;;;;;;;;;5098162;28;20002;-68
2024/02/19 14:33:09;;;;;;;9.23;2.72;;;;;;;;;;5091504;28;20043;-65
2024/02/19 14:35:37;;;;;;;10.30;3.33;;;;;;;;;;5065416;28;20056;-67
2024/02/19 14:38:07;;;;;;;5.78;2.70;;;;;;;;;;5081609;28;20067;-67
2024/02/19 14:40:36;;;;;;;14.73;2.65;;;;;;;;;;5080560;28;20062;-66
2024/02/19 14:43:05;;;;;;;;;;;;;;;;;;5078190;28;20116;-66
2024/02/19 14:45:36;;;;;;;9.48;3.20;;;;;;;;;;5053176;28;19923;-68
2024/02/19 14:48:03;;;;;;;10.70;2.90;;;;;;;;;;5079966;28;20055;-68
2024/02/19 14:50:32;;;;;;;10.38;3.05;;;;;;;;;;5090587;28;20056;-68
2024/02/19 14:52:59;;;;;;;11.80;3.17;;;;;;;;;;5072603;28;20297;-66
2024/02/19 14:55:30;;;;;;;12.77;2.80;;;;;;;;;;5054579;28;20060;-68
2024/02/19 14:57:57;;;;;;;10.77;2.90;;;;;;;;;;5081432;28;20048;-66
2024/02/19 15:00:24;;;;;;;13.15;2.95;;;;;;;;;;5080994;28;20055;-69
2024/02/19 15:02:51;;;;;;;8.60;2.58;;;;;;;;;;5099366;28;20059;-68
2024/02/19 15:05:29;;;;;;;6.55;2.33;;;;;;;;;;5064579;28;20052;-67
2024/02/19 15:07:56;;;;;;;10.88;2.50;;;;;;;;;;5100198;27;20055;-69
2024/02/19 15:10:26;;;;;;;15.07;3.10;;;;;;;;;;5079987;28;20055;-67
2024/02/19 15:12:58;;;;;;;14.93;3.08;;;;;;;;;;5080107;28;20051;-66
2024/02/19 15:15:25;;;;;;;10.10;2.97;;;;;;;;;;5090507;28;20073;-64
2024/02/19 15:17:53;;;;;;;12.43;2.72;;;;;;;;;;5080811;28;20139;-67